sensor_id;sensor_type;location;lat;lon;timestamp;temperature;humidity
36816;DHT22;22760;51.910;4.474;2022-08-01T00:01:31;18.70;99.90
36816;DHT22;22760;51.910;4.474;2022-08-01T00:03:58;18.70;99.90
36816;DHT22;22760;51.910;4.474;2022-08-01T00:06:24;18.80;99.90
36816;DHT22;22760;51.910;4.474;2022-08-01T00:08:51;18.80;99.90
36816;DHT22;22760;51.910;4.474;2022-08-01T00:11:18;18.80;99.90
36816;DHT22;22760;51.910;4.474;2022-08-01T00:13:46;18.80;99.90
36816;DHT22;22760;51.910;4.474;2022-08-01T00:16:13;18.80;99.90
36816;DHT22;22760;51.910;4.474;2022-08-01T00:18:41;18.80;99.90
36816;DHT22;22760;51.910;4.474;2022-08-01T00:21:08;18.80;99.90
36816;DHT22;22760;51.910;4.474;2022-08-01T00:23:35;18.80;99.90
36816;DHT22;22760;51.910;4.474;2022-08-01T00:26:02;18.80;99.90
36816;DHT22;22760;51.910;4.474;2022-08-01T00:28:28;18.80;99.90
36816;DHT22;22760;51.910;4.474;2022-08-01T00:30:57;18.80;99.90
36816;DHT22;22760;51.910;4.474;2022-08-01T00:33:23;18.80;99.90
36816;DHT22;22760;51.910;4.474;2022-08-01T00:35:50;18.80;99.90
36816;DHT22;22760;51.910;4.474;2022-08-01T00:38:17;18.80;99.90
36816;DHT22;22760;51.910;4.474;2022-08-01T00:40:44;18.80;99.90
36816;DHT22;22760;51.910;4.474;2022-08-01T00:43:10;18.90;99.90
36816;DHT22;22760;51.910;4.474;2022-08-01T00:45:37;18.80;99.90
36816;DHT22;22760;51.910;4.474;2022-08-01T00:48:05;18.80;99.90
36816;DHT22;22760;51.910;4.474;2022-08-01T00:50:32;18.80;99.90
36816;DHT22;22760;51.910;4.474;2022-08-01T00:53:00;18.80;99.90
36816;DHT22;22760;51.910;4.474;2022-08-01T00:55:27;18.80;99.90
36816;DHT22;22760;51.910;4.474;2022-08-01T00:57:54;18.80;99.90
36816;DHT22;22760;51.910;4.474;2022-08-01T01:00:21;18.80;99.90
36816;DHT22;22760;51.910;4.474;2022-08-01T01:02:48;18.80;99.90
36816;DHT22;22760;51.910;4.474;2022-08-01T01:05:17;18.80;99.90
36816;DHT22;22760;51.910;4.474;2022-08-01T01:07:48;18.80;99.90
36816;DHT22;22760;51.910;4.474;2022-08-01T01:10:22;18.80;99.90
36816;DHT22;22760;51.910;4.474;2022-08-01T01:12:59;18.80;99.90
36816;DHT22;22760;51.910;4.474;2022-08-01T01:15:31;18.80;99.90
36816;DHT22;22760;51.910;4.474;2022-08-01T01:18:03;18.80;99.90
36816;DHT22;22760;51.910;4.474;2022-08-01T01:20:37;18.80;99.90
36816;DHT22;22760;51.910;4.474;2022-08-01T01:23:24;18.80;99.90
36816;DHT22;22760;51.910;4.474;2022-08-01T01:26:17;18.80;99.90
36816;DHT22;22760;51.910;4.474;2022-08-01T01:29:11;18.80;99.90
36816;DHT22;22760;51.910;4.474;2022-08-01T01:31:44;18.80;99.90
36816;DHT22;22760;51.910;4.474;2022-08-01T01:34:13;18.80;99.90
36816;DHT22;22760;51.910;4.474;2022-08-01T01:36:42;18.80;99.90
36816;DHT22;22760;51.910;4.474;2022-08-01T01:39:10;18.80;99.90
36816;DHT22;22760;51.910;4.474;2022-08-01T01:41:40;18.70;99.90
36816;DHT22;22760;51.910;4.474;2022-08-01T01:44:10;18.70;99.90
36816;DHT22;22760;51.910;4.474;2022-08-01T01:46:39;18.60;99.90
36816;DHT22;22760;51.910;4.474;2022-08-01T01:49:07;18.60;99.90
36816;DHT22;22760;51.910;4.474;2022-08-01T01:51:36;18.60;99.90
36816;DHT22;22760;51.910;4.474;2022-08-01T01:54:04;18.60;99.90
36816;DHT22;22760;51.910;4.474;2022-08-01T01:56:32;18.60;99.90
36816;DHT22;22760;51.910;4.474;2022-08-01T01:59:01;18.60;99.90
36816;DHT22;22760;51.910;4.474;2022-08-01T02:01:32;18.50;99.90
36816;DHT22;22760;51.910;4.474;2022-08-01T02:04:01;18.50;99.90
36816;DHT22;22760;51.910;4.474;2022-08-01T02:06:29;18.50;99.90
36816;DHT22;22760;51.910;4.474;2022-08-01T02:08:59;18.50;99.90
36816;DHT22;22760;51.910;4.474;2022-08-01T02:11:27;18.50;99.90
36816;DHT22;22760;51.910;4.474;2022-08-01T02:13:57;18.50;99.90
36816;DHT22;22760;51.910;4.474;2022-08-01T02:16:27;18.50;99.90
36816;DHT22;22760;51.910;4.474;2022-08-01T02:18:56;18.50;99.90
36816;DHT22;22760;51.910;4.474;2022-08-01T02:21:28;18.50;99.90
36816;DHT22;22760;51.910;4.474;2022-08-01T02:24:00;18.50;99.90
36816;DHT22;22760;51.910;4.474;2022-08-01T02:26:28;18.50;99.90
36816;DHT22;22760;51.910;4.474;2022-08-01T02:28:59;18.50;99.90
36816;DHT22;22760;51.910;4.474;2022-08-01T02:31:27;18.50;99.90
36816;DHT22;22760;51.910;4.474;2022-08-01T02:34:02;18.50;99.90
36816;DHT22;22760;51.910;4.474;2022-08-01T02:36:33;18.50;99.90
36816;DHT22;22760;51.910;4.474;2022-08-01T02:39:05;18.50;99.90
36816;DHT22;22760;51.910;4.474;2022-08-01T02:41:33;18.50;99.90
36816;DHT22;22760;51.910;4.474;2022-08-01T02:44:05;18.50;99.90
36816;DHT22;22760;51.910;4.474;2022-08-01T02:46:36;18.50;99.90
36816;DHT22;22760;51.910;4.474;2022-08-01T02:49:06;18.50;99.90
36816;DHT22;22760;51.910;4.474;2022-08-01T02:51:35;18.50;99.90
36816;DHT22;22760;51.910;4.474;2022-08-01T02:54:03;18.50;99.90
36816;DHT22;22760;51.910;4.474;2022-08-01T02:56:32;18.50;99.90
36816;DHT22;22760;51.910;4.474;2022-08-01T02:59:04;18.50;99.90
36816;DHT22;22760;51.910;4.474;2022-08-01T03:01:33;18.50;99.90
36816;DHT22;22760;51.910;4.474;2022-08-01T03:04:01;18.50;99.90
36816;DHT22;22760;51.910;4.474;2022-08-01T03:06:30;18.50;99.90
36816;DHT22;22760;51.910;4.474;2022-08-01T03:08:58;18.50;99.90
36816;DHT22;22760;51.910;4.474;2022-08-01T03:11:27;18.50;99.90
36816;DHT22;22760;51.910;4.474;2022-08-01T03:13:56;18.50;99.90
36816;DHT22;22760;51.910;4.474;2022-08-01T03:16:23;18.50;99.90
36816;DHT22;22760;51.910;4.474;2022-08-01T03:18:53;18.50;99.90
36816;DHT22;22760;51.910;4.474;2022-08-01T03:21:22;18.40;99.90
36816;DHT22;22760;51.910;4.474;2022-08-01T03:23:51;18.40;99.90
36816;DHT22;22760;51.910;4.474;2022-08-01T03:26:24;18.40;99.90
36816;DHT22;22760;51.910;4.474;2022-08-01T03:28:55;18.40;99.90
36816;DHT22;22760;51.910;4.474;2022-08-01T03:31:23;18.40;99.90
36816;DHT22;22760;51.910;4.474;2022-08-01T03:33:50;18.40;99.90
36816;DHT22;22760;51.910;4.474;2022-08-01T03:36:20;18.40;99.90
36816;DHT22;22760;51.910;4.474;2022-08-01T03:38:48;18.30;99.90
36816;DHT22;22760;51.910;4.474;2022-08-01T03:41:20;18.40;99.90
36816;DHT22;22760;51.910;4.474;2022-08-01T03:43:53;18.40;99.90
36816;DHT22;22760;51.910;4.474;2022-08-01T03:46:27;18.30;99.90
36816;DHT22;22760;51.910;4.474;2022-08-01T03:48:58;18.30;99.90
36816;DHT22;22760;51.910;4.474;2022-08-01T03:51:27;18.30;99.90
36816;DHT22;22760;51.910;4.474;2022-08-01T03:53:57;18.30;99.90
36816;DHT22;22760;51.910;4.474;2022-08-01T03:56:28;18.30;99.90
36816;DHT22;22760;51.910;4.474;2022-08-01T03:58:57;18.30;99.90
36816;DHT22;22760;51.910;4.474;2022-08-01T04:01:25;18.30;99.90
36816;DHT22;22760;51.910;4.474;2022-08-01T04:03:52;18.30;99.90
36816;DHT22;22760;51.910;4.474;2022-08-01T04:06:19;18.30;99.90
36816;DHT22;22760;51.910;4.474;2022-08-01T04:08:46;18.30;99.90
36816;DHT22;22760;51.910;4.474;2022-08-01T04:11:21;18.30;99.90
36816;DHT22;22760;51.910;4.474;2022-08-01T04:13:51;18.40;99.90
36816;DHT22;22760;51.910;4.474;2022-08-01T04:16:18;18.40;99.90
36816;DHT22;22760;51.910;4.474;2022-08-01T04:18:44;18.40;99.90
36816;DHT22;22760;51.910;4.474;2022-08-01T04:21:11;18.40;99.90
36816;DHT22;22760;51.910;4.474;2022-08-01T04:23:39;18.30;99.90
36816;DHT22;22760;51.910;4.474;2022-08-01T04:26:09;18.30;99.90
36816;DHT22;22760;51.910;4.474;2022-08-01T04:28:37;18.30;99.90
36816;DHT22;22760;51.910;4.474;2022-08-01T04:31:08;18.40;99.90
36816;DHT22;22760;51.910;4.474;2022-08-01T04:33:38;18.40;99.90
36816;DHT22;22760;51.910;4.474;2022-08-01T04:36:07;18.40;99.90
36816;DHT22;22760;51.910;4.474;2022-08-01T04:38:37;18.40;99.90
36816;DHT22;22760;51.910;4.474;2022-08-01T04:41:05;18.40;99.90
36816;DHT22;22760;51.910;4.474;2022-08-01T04:43:33;18.50;99.90
36816;DHT22;22760;51.910;4.474;2022-08-01T04:46:01;18.50;99.90
36816;DHT22;22760;51.910;4.474;2022-08-01T04:48:31;18.50;99.90
36816;DHT22;22760;51.910;4.474;2022-08-01T04:50:59;18.60;99.90
36816;DHT22;22760;51.910;4.474;2022-08-01T04:53:26;18.60;99.90
36816;DHT22;22760;51.910;4.474;2022-08-01T04:55:53;18.60;99.90
36816;DHT22;22760;51.910;4.474;2022-08-01T04:58:21;18.60;99.90
36816;DHT22;22760;51.910;4.474;2022-08-01T05:00:47;18.60;99.90
36816;DHT22;22760;51.910;4.474;2022-08-01T05:03:14;18.70;99.90
36816;DHT22;22760;51.910;4.474;2022-08-01T05:05:42;18.60;99.90
36816;DHT22;22760;51.910;4.474;2022-08-01T05:08:09;18.60;99.90
36816;DHT22;22760;51.910;4.474;2022-08-01T05:10:36;18.60;99.90
36816;DHT22;22760;51.910;4.474;2022-08-01T05:13:03;18.70;99.90
36816;DHT22;22760;51.910;4.474;2022-08-01T05:15:31;18.70;99.90
36816;DHT22;22760;51.910;4.474;2022-08-01T05:17:58;18.70;99.90
36816;DHT22;22760;51.910;4.474;2022-08-01T05:20:25;18.70;99.90
36816;DHT22;22760;51.910;4.474;2022-08-01T05:22:53;18.70;99.90
36816;DHT22;22760;51.910;4.474;2022-08-01T05:25:21;18.70;99.90
36816;DHT22;22760;51.910;4.474;2022-08-01T05:27:49;18.70;99.90
36816;DHT22;22760;51.910;4.474;2022-08-01T05:30:15;18.70;99.90
36816;DHT22;22760;51.910;4.474;2022-08-01T05:32:42;18.70;99.90
36816;DHT22;22760;51.910;4.474;2022-08-01T05:35:09;18.70;99.90
36816;DHT22;22760;51.910;4.474;2022-08-01T05:37:37;18.80;99.90
36816;DHT22;22760;51.910;4.474;2022-08-01T05:40:06;18.80;99.90
36816;DHT22;22760;51.910;4.474;2022-08-01T05:42:33;18.80;99.90
36816;DHT22;22760;51.910;4.474;2022-08-01T05:44:59;18.90;99.90
36816;DHT22;22760;51.910;4.474;2022-08-01T05:47:26;18.90;99.90
36816;DHT22;22760;51.910;4.474;2022-08-01T05:49:53;18.90;99.90
36816;DHT22;22760;51.910;4.474;2022-08-01T05:52:20;18.90;99.90
36816;DHT22;22760;51.910;4.474;2022-08-01T05:54:46;19.00;99.90
36816;DHT22;22760;51.910;4.474;2022-08-01T05:57:14;19.10;99.90
36816;DHT22;22760;51.910;4.474;2022-08-01T05:59:41;19.10;99.90
36816;DHT22;22760;51.910;4.474;2022-08-01T06:02:08;19.10;99.90
36816;DHT22;22760;51.910;4.474;2022-08-01T06:04:35;19.20;99.90
36816;DHT22;22760;51.910;4.474;2022-08-01T06:07:01;19.20;99.90
36816;DHT22;22760;51.910;4.474;2022-08-01T06:09:28;19.20;99.90
36816;DHT22;22760;51.910;4.474;2022-08-01T06:11:56;19.20;99.90
36816;DHT22;22760;51.910;4.474;2022-08-01T06:14:24;19.10;99.90
36816;DHT22;22760;51.910;4.474;2022-08-01T06:16:51;19.20;99.90
36816;DHT22;22760;51.910;4.474;2022-08-01T06:19:17;19.20;99.90
36816;DHT22;22760;51.910;4.474;2022-08-01T06:21:44;19.20;99.90
36816;DHT22;22760;51.910;4.474;2022-08-01T06:24:11;19.30;99.90
36816;DHT22;22760;51.910;4.474;2022-08-01T06:26:38;19.20;99.90
36816;DHT22;22760;51.910;4.474;2022-08-01T06:29:05;19.20;99.90
36816;DHT22;22760;51.910;4.474;2022-08-01T06:31:33;19.20;99.90
36816;DHT22;22760;51.910;4.474;2022-08-01T06:33:59;19.20;99.90
36816;DHT22;22760;51.910;4.474;2022-08-01T06:36:26;19.20;99.90
36816;DHT22;22760;51.910;4.474;2022-08-01T06:38:53;19.10;99.90
36816;DHT22;22760;51.910;4.474;2022-08-01T06:41:20;19.10;99.90
36816;DHT22;22760;51.910;4.474;2022-08-01T06:43:47;19.00;99.90
36816;DHT22;22760;51.910;4.474;2022-08-01T06:46:13;18.80;99.90
36816;DHT22;22760;51.910;4.474;2022-08-01T06:48:41;18.70;99.90
36816;DHT22;22760;51.910;4.474;2022-08-01T06:51:08;18.60;99.90
36816;DHT22;22760;51.910;4.474;2022-08-01T06:53:38;18.50;99.90
36816;DHT22;22760;51.910;4.474;2022-08-01T06:56:06;18.50;99.90
36816;DHT22;22760;51.910;4.474;2022-08-01T06:58:34;18.50;99.90
36816;DHT22;22760;51.910;4.474;2022-08-01T07:01:01;18.50;99.90
36816;DHT22;22760;51.910;4.474;2022-08-01T07:03:29;18.50;99.90
36816;DHT22;22760;51.910;4.474;2022-08-01T07:05:57;18.50;99.90
36816;DHT22;22760;51.910;4.474;2022-08-01T07:08:24;18.50;99.90
36816;DHT22;22760;51.910;4.474;2022-08-01T07:10:51;18.60;99.90
36816;DHT22;22760;51.910;4.474;2022-08-01T07:13:18;18.60;99.90
36816;DHT22;22760;51.910;4.474;2022-08-01T07:15:46;18.60;99.90
36816;DHT22;22760;51.910;4.474;2022-08-01T07:18:13;18.60;99.90
36816;DHT22;22760;51.910;4.474;2022-08-01T07:20:40;18.60;99.90
36816;DHT22;22760;51.910;4.474;2022-08-01T07:23:08;18.60;99.90
36816;DHT22;22760;51.910;4.474;2022-08-01T07:25:35;18.60;99.90
36816;DHT22;22760;51.910;4.474;2022-08-01T07:28:02;18.60;99.90
36816;DHT22;22760;51.910;4.474;2022-08-01T07:30:28;18.50;99.90
36816;DHT22;22760;51.910;4.474;2022-08-01T07:32:55;18.40;99.90
36816;DHT22;22760;51.910;4.474;2022-08-01T07:35:22;18.20;99.90
36816;DHT22;22760;51.910;4.474;2022-08-01T07:37:49;18.10;99.90
36816;DHT22;22760;51.910;4.474;2022-08-01T07:40:18;18.10;99.90
36816;DHT22;22760;51.910;4.474;2022-08-01T07:42:45;18.10;99.90
36816;DHT22;22760;51.910;4.474;2022-08-01T07:45:13;18.00;99.90
36816;DHT22;22760;51.910;4.474;2022-08-01T07:47:40;18.00;99.90
36816;DHT22;22760;51.910;4.474;2022-08-01T07:50:08;18.00;99.90
36816;DHT22;22760;51.910;4.474;2022-08-01T07:52:34;18.10;99.90
36816;DHT22;22760;51.910;4.474;2022-08-01T07:55:01;18.10;99.90
36816;DHT22;22760;51.910;4.474;2022-08-01T07:57:29;18.30;99.90
36816;DHT22;22760;51.910;4.474;2022-08-01T07:59:56;18.30;99.90
36816;DHT22;22760;51.910;4.474;2022-08-01T08:02:23;18.30;99.90
36816;DHT22;22760;51.910;4.474;2022-08-01T08:04:50;18.30;99.90
36816;DHT22;22760;51.910;4.474;2022-08-01T08:07:16;18.30;99.90
36816;DHT22;22760;51.910;4.474;2022-08-01T08:09:43;18.40;99.90
36816;DHT22;22760;51.910;4.474;2022-08-01T08:12:10;18.40;99.90
36816;DHT22;22760;51.910;4.474;2022-08-01T08:14:38;18.40;99.90
36816;DHT22;22760;51.910;4.474;2022-08-01T08:17:06;18.50;99.90
36816;DHT22;22760;51.910;4.474;2022-08-01T08:19:33;18.60;99.90
36816;DHT22;22760;51.910;4.474;2022-08-01T08:22:02;18.60;99.90
36816;DHT22;22760;51.910;4.474;2022-08-01T08:24:29;18.70;99.90
36816;DHT22;22760;51.910;4.474;2022-08-01T08:26:57;18.80;99.90
36816;DHT22;22760;51.910;4.474;2022-08-01T08:29:25;18.70;99.90
36816;DHT22;22760;51.910;4.474;2022-08-01T08:31:54;18.70;99.90
36816;DHT22;22760;51.910;4.474;2022-08-01T08:34:21;18.80;99.90
36816;DHT22;22760;51.910;4.474;2022-08-01T08:36:48;18.90;99.90
36816;DHT22;22760;51.910;4.474;2022-08-01T08:39:16;19.00;99.90
36816;DHT22;22760;51.910;4.474;2022-08-01T08:41:43;19.20;99.90
36816;DHT22;22760;51.910;4.474;2022-08-01T08:44:10;19.30;99.90
36816;DHT22;22760;51.910;4.474;2022-08-01T08:46:41;19.50;99.90
36816;DHT22;22760;51.910;4.474;2022-08-01T08:49:10;19.50;99.90
36816;DHT22;22760;51.910;4.474;2022-08-01T08:51:39;19.50;99.90
36816;DHT22;22760;51.910;4.474;2022-08-01T08:54:06;19.50;99.90
36816;DHT22;22760;51.910;4.474;2022-08-01T08:56:35;19.50;99.90
36816;DHT22;22760;51.910;4.474;2022-08-01T08:59:02;19.70;99.90
36816;DHT22;22760;51.910;4.474;2022-08-01T09:01:31;19.80;99.90
36816;DHT22;22760;51.910;4.474;2022-08-01T09:04:00;19.80;99.90
36816;DHT22;22760;51.910;4.474;2022-08-01T09:06:29;20.10;99.90
36816;DHT22;22760;51.910;4.474;2022-08-01T09:08:56;20.10;99.90
36816;DHT22;22760;51.910;4.474;2022-08-01T09:11:23;20.10;99.90
36816;DHT22;22760;51.910;4.474;2022-08-01T09:14:05;20.10;99.90
36816;DHT22;22760;51.910;4.474;2022-08-01T09:16:34;19.90;99.90
36816;DHT22;22760;51.910;4.474;2022-08-01T09:19:10;19.90;99.90
36816;DHT22;22760;51.910;4.474;2022-08-01T09:21:39;19.90;99.90
36816;DHT22;22760;51.910;4.474;2022-08-01T09:24:15;19.90;99.90
36816;DHT22;22760;51.910;4.474;2022-08-01T09:26:42;19.90;99.90
36816;DHT22;22760;51.910;4.474;2022-08-01T09:29:19;19.90;99.90
36816;DHT22;22760;51.910;4.474;2022-08-01T09:31:47;19.80;99.90
36816;DHT22;22760;51.910;4.474;2022-08-01T09:34:15;19.80;99.90
36816;DHT22;22760;51.910;4.474;2022-08-01T09:36:51;19.90;99.90
36816;DHT22;22760;51.910;4.474;2022-08-01T09:39:20;20.00;99.90
36816;DHT22;22760;51.910;4.474;2022-08-01T09:41:48;20.40;99.90
36816;DHT22;22760;51.910;4.474;2022-08-01T09:44:16;20.60;99.90
36816;DHT22;22760;51.910;4.474;2022-08-01T09:46:51;20.70;99.90
36816;DHT22;22760;51.910;4.474;2022-08-01T09:49:28;20.80;99.90
36816;DHT22;22760;51.910;4.474;2022-08-01T09:51:57;21.00;99.90
36816;DHT22;22760;51.910;4.474;2022-08-01T09:54:32;21.20;99.90
36816;DHT22;22760;51.910;4.474;2022-08-01T09:57:10;21.20;99.90
36816;DHT22;22760;51.910;4.474;2022-08-01T09:59:39;21.30;99.90
36816;DHT22;22760;51.910;4.474;2022-08-01T10:02:08;21.40;99.90
36816;DHT22;22760;51.910;4.474;2022-08-01T10:04:36;21.20;99.90
36816;DHT22;22760;51.910;4.474;2022-08-01T10:07:07;21.00;99.90
36816;DHT22;22760;51.910;4.474;2022-08-01T10:09:35;20.90;99.90
36816;DHT22;22760;51.910;4.474;2022-08-01T10:12:03;20.90;99.90
36816;DHT22;22760;51.910;4.474;2022-08-01T10:14:31;21.00;99.90
36816;DHT22;22760;51.910;4.474;2022-08-01T10:16:59;21.30;99.90
36816;DHT22;22760;51.910;4.474;2022-08-01T10:19:28;21.40;99.90
36816;DHT22;22760;51.910;4.474;2022-08-01T10:21:56;21.50;99.90
36816;DHT22;22760;51.910;4.474;2022-08-01T10:24:27;21.40;99.90
36816;DHT22;22760;51.910;4.474;2022-08-01T10:26:57;21.40;99.90
36816;DHT22;22760;51.910;4.474;2022-08-01T10:29:27;21.40;99.90
36816;DHT22;22760;51.910;4.474;2022-08-01T10:31:57;21.40;99.90
36816;DHT22;22760;51.910;4.474;2022-08-01T10:34:24;21.70;99.90
36816;DHT22;22760;51.910;4.474;2022-08-01T10:36:51;21.70;99.90
36816;DHT22;22760;51.910;4.474;2022-08-01T10:39:18;21.90;99.90
36816;DHT22;22760;51.910;4.474;2022-08-01T10:41:46;22.10;99.90
36816;DHT22;22760;51.910;4.474;2022-08-01T10:44:13;22.20;99.90
36816;DHT22;22760;51.910;4.474;2022-08-01T10:46:44;22.30;99.90
36816;DHT22;22760;51.910;4.474;2022-08-01T10:49:14;22.40;99.90
36816;DHT22;22760;51.910;4.474;2022-08-01T10:51:42;22.30;99.90
36816;DHT22;22760;51.910;4.474;2022-08-01T10:54:10;22.30;99.90
36816;DHT22;22760;51.910;4.474;2022-08-01T10:56:39;22.40;99.90
36816;DHT22;22760;51.910;4.474;2022-08-01T10:59:08;22.40;99.90
36816;DHT22;22760;51.910;4.474;2022-08-01T11:01:35;22.10;99.90
36816;DHT22;22760;51.910;4.474;2022-08-01T11:04:06;22.00;99.90
36816;DHT22;22760;51.910;4.474;2022-08-01T11:06:49;21.90;99.90
36816;DHT22;22760;51.910;4.474;2022-08-01T11:09:24;22.20;99.90
36816;DHT22;22760;51.910;4.474;2022-08-01T11:12:04;22.40;99.90
36816;DHT22;22760;51.910;4.474;2022-08-01T11:17:42;22.80;99.90
36816;DHT22;22760;51.910;4.474;2022-08-01T11:20:13;22.80;99.90
36816;DHT22;22760;51.910;4.474;2022-08-01T11:23:15;22.60;99.90
36816;DHT22;22760;51.910;4.474;2022-08-01T11:26:09;22.70;99.90
36816;DHT22;22760;51.910;4.474;2022-08-01T11:28:37;22.90;99.90
36816;DHT22;22760;51.910;4.474;2022-08-01T11:31:27;23.10;99.90
36816;DHT22;22760;51.910;4.474;2022-08-01T11:33:54;23.00;99.90
36816;DHT22;22760;51.910;4.474;2022-08-01T11:36:21;22.70;99.90
36816;DHT22;22760;51.910;4.474;2022-08-01T11:39:10;22.30;99.90
36816;DHT22;22760;51.910;4.474;2022-08-01T11:41:37;22.20;99.90
36816;DHT22;22760;51.910;4.474;2022-08-01T11:44:06;22.10;99.90
36816;DHT22;22760;51.910;4.474;2022-08-01T11:46:53;22.40;99.90
36816;DHT22;22760;51.910;4.474;2022-08-01T11:49:30;22.70;99.90
36816;DHT22;22760;51.910;4.474;2022-08-01T11:51:59;22.60;99.90
36816;DHT22;22760;51.910;4.474;2022-08-01T11:54:31;22.40;99.90
36816;DHT22;22760;51.910;4.474;2022-08-01T11:56:58;22.60;99.90
36816;DHT22;22760;51.910;4.474;2022-08-01T11:59:26;22.80;99.90
36816;DHT22;22760;51.910;4.474;2022-08-01T12:01:54;22.80;99.90
36816;DHT22;22760;51.910;4.474;2022-08-01T12:04:21;23.10;99.90
36816;DHT22;22760;51.910;4.474;2022-08-01T12:06:47;23.40;99.90
36816;DHT22;22760;51.910;4.474;2022-08-01T12:09:16;23.40;99.90
36816;DHT22;22760;51.910;4.474;2022-08-01T12:11:43;23.60;99.90
36816;DHT22;22760;51.910;4.474;2022-08-01T12:14:15;23.60;99.90
36816;DHT22;22760;51.910;4.474;2022-08-01T12:16:49;23.90;99.90
36816;DHT22;22760;51.910;4.474;2022-08-01T12:19:20;24.00;99.90
36816;DHT22;22760;51.910;4.474;2022-08-01T12:22:09;23.60;99.80
36816;DHT22;22760;51.910;4.474;2022-08-01T12:24:36;23.60;99.90
36816;DHT22;22760;51.910;4.474;2022-08-01T12:27:04;23.60;99.90
36816;DHT22;22760;51.910;4.474;2022-08-01T12:29:34;23.40;99.90
36816;DHT22;22760;51.910;4.474;2022-08-01T12:32:01;23.40;99.90
36816;DHT22;22760;51.910;4.474;2022-08-01T12:34:29;23.30;99.90
36816;DHT22;22760;51.910;4.474;2022-08-01T12:37:00;23.60;99.90
36816;DHT22;22760;51.910;4.474;2022-08-01T12:39:32;23.70;99.90
36816;DHT22;22760;51.910;4.474;2022-08-01T12:41:59;23.80;99.90
36816;DHT22;22760;51.910;4.474;2022-08-01T12:44:27;23.80;99.90
36816;DHT22;22760;51.910;4.474;2022-08-01T12:46:55;23.90;99.50
36816;DHT22;22760;51.910;4.474;2022-08-01T12:49:23;23.90;98.60
36816;DHT22;22760;51.910;4.474;2022-08-01T12:51:51;23.90;99.90
36816;DHT22;22760;51.910;4.474;2022-08-01T12:54:18;23.90;98.70
36816;DHT22;22760;51.910;4.474;2022-08-01T12:56:45;24.00;99.80
36816;DHT22;22760;51.910;4.474;2022-08-01T12:59:22;23.80;98.60
36816;DHT22;22760;51.910;4.474;2022-08-01T13:01:51;23.70;99.30
36816;DHT22;22760;51.910;4.474;2022-08-01T13:04:18;23.60;98.60
36816;DHT22;22760;51.910;4.474;2022-08-01T13:06:45;23.60;98.60
36816;DHT22;22760;51.910;4.474;2022-08-01T13:09:14;23.80;98.20
36816;DHT22;22760;51.910;4.474;2022-08-01T13:11:41;23.90;96.50
36816;DHT22;22760;51.910;4.474;2022-08-01T13:14:09;23.90;97.90
36816;DHT22;22760;51.910;4.474;2022-08-01T13:16:46;24.00;98.50
36816;DHT22;22760;51.910;4.474;2022-08-01T13:19:13;24.20;98.10
36816;DHT22;22760;51.910;4.474;2022-08-01T13:21:53;24.00;99.70
36816;DHT22;22760;51.910;4.474;2022-08-01T13:24:26;24.20;99.90
36816;DHT22;22760;51.910;4.474;2022-08-01T13:26:55;24.20;98.50
36816;DHT22;22760;51.910;4.474;2022-08-01T13:29:32;24.10;95.60
36816;DHT22;22760;51.910;4.474;2022-08-01T13:31:59;24.00;95.00
36816;DHT22;22760;51.910;4.474;2022-08-01T13:34:30;24.00;95.70
36816;DHT22;22760;51.910;4.474;2022-08-01T13:36:57;24.00;95.70
36816;DHT22;22760;51.910;4.474;2022-08-01T13:39:23;24.00;94.60
36816;DHT22;22760;51.910;4.474;2022-08-01T13:42:13;24.20;96.00
36816;DHT22;22760;51.910;4.474;2022-08-01T13:44:40;24.50;95.40
36816;DHT22;22760;51.910;4.474;2022-08-01T13:47:07;24.40;96.00
36816;DHT22;22760;51.910;4.474;2022-08-01T13:49:34;24.60;94.30
36816;DHT22;22760;51.910;4.474;2022-08-01T13:52:01;24.80;95.40
36816;DHT22;22760;51.910;4.474;2022-08-01T13:54:29;25.00;94.60
36816;DHT22;22760;51.910;4.474;2022-08-01T13:56:57;25.10;93.70
36816;DHT22;22760;51.910;4.474;2022-08-01T13:59:25;25.00;93.00
36816;DHT22;22760;51.910;4.474;2022-08-01T14:01:52;24.50;91.80
36816;DHT22;22760;51.910;4.474;2022-08-01T14:04:18;24.50;93.90
36816;DHT22;22760;51.910;4.474;2022-08-01T14:06:46;24.20;93.40
36816;DHT22;22760;51.910;4.474;2022-08-01T14:09:13;24.20;92.90
36816;DHT22;22760;51.910;4.474;2022-08-01T14:11:42;24.20;92.40
36816;DHT22;22760;51.910;4.474;2022-08-01T14:14:08;24.00;92.10
36816;DHT22;22760;51.910;4.474;2022-08-01T14:16:36;24.10;93.00
36816;DHT22;22760;51.910;4.474;2022-08-01T14:19:04;24.20;93.10
36816;DHT22;22760;51.910;4.474;2022-08-01T14:21:31;24.50;94.10
36816;DHT22;22760;51.910;4.474;2022-08-01T14:23:58;24.40;92.70
36816;DHT22;22760;51.910;4.474;2022-08-01T14:26:25;24.70;93.90
36816;DHT22;22760;51.910;4.474;2022-08-01T14:28:51;24.80;93.00
36816;DHT22;22760;51.910;4.474;2022-08-01T14:31:18;24.40;92.30
36816;DHT22;22760;51.910;4.474;2022-08-01T14:33:46;24.40;92.90
36816;DHT22;22760;51.910;4.474;2022-08-01T14:36:13;24.50;93.30
36816;DHT22;22760;51.910;4.474;2022-08-01T14:38:40;24.50;92.10
36816;DHT22;22760;51.910;4.474;2022-08-01T14:41:07;24.50;92.40
36816;DHT22;22760;51.910;4.474;2022-08-01T14:43:33;24.50;93.00
36816;DHT22;22760;51.910;4.474;2022-08-01T14:46:01;24.60;92.70
36816;DHT22;22760;51.910;4.474;2022-08-01T14:48:28;24.80;95.00
36816;DHT22;22760;51.910;4.474;2022-08-01T14:50:57;24.90;93.30
36816;DHT22;22760;51.910;4.474;2022-08-01T14:53:24;25.00;93.60
36816;DHT22;22760;51.910;4.474;2022-08-01T14:55:51;24.70;92.30
36816;DHT22;22760;51.910;4.474;2022-08-01T14:58:18;24.60;92.40
36816;DHT22;22760;51.910;4.474;2022-08-01T15:00:45;24.50;92.00
36816;DHT22;22760;51.910;4.474;2022-08-01T15:03:11;24.50;91.80
36816;DHT22;22760;51.910;4.474;2022-08-01T15:05:39;24.50;92.40
36816;DHT22;22760;51.910;4.474;2022-08-01T15:08:07;24.40;92.00
36816;DHT22;22760;51.910;4.474;2022-08-01T15:10:34;24.30;92.20
36816;DHT22;22760;51.910;4.474;2022-08-01T15:13:01;24.20;91.30
36816;DHT22;22760;51.910;4.474;2022-08-01T15:15:28;24.10;92.30
36816;DHT22;22760;51.910;4.474;2022-08-01T15:17:56;24.10;92.00
36816;DHT22;22760;51.910;4.474;2022-08-01T15:20:23;24.20;91.20
36816;DHT22;22760;51.910;4.474;2022-08-01T15:22:52;24.50;90.80
36816;DHT22;22760;51.910;4.474;2022-08-01T15:25:20;24.90;90.60
36816;DHT22;22760;51.910;4.474;2022-08-01T15:27:47;25.30;89.00
36816;DHT22;22760;51.910;4.474;2022-08-01T15:30:14;25.30;88.70
36816;DHT22;22760;51.910;4.474;2022-08-01T15:32:41;25.10;91.20
36816;DHT22;22760;51.910;4.474;2022-08-01T15:35:09;25.50;91.30
36816;DHT22;22760;51.910;4.474;2022-08-01T15:37:36;26.20;90.70
36816;DHT22;22760;51.910;4.474;2022-08-01T15:40:04;26.50;86.30
36816;DHT22;22760;51.910;4.474;2022-08-01T15:42:32;26.60;84.90
36816;DHT22;22760;51.910;4.474;2022-08-01T15:45:00;26.70;85.40